AAL245 MUHA-KMIA
Flight info
| Callsign | AAL245 |
|---|---|
| Flight time | 0h 41m |
| Altitude | 25000 |
| Route | MUHA/24 WOLSE1.EMOVI/24 MAXIM SNDBR3 |
| Aircraft | B738/M-SDE2E3FGHIRWXY/LB1 |
Departure
| Time | 2026-05-03 20:15 |
|---|---|
| Airport | José Martí International Airport (MUHA) |
Arrival
| Time | 2026-05-03 20:57 |
|---|---|
| Airport | Miami International Airport (KMIA) |
| Time | Latitude | Longitude | Altitude | Speed | Heading |
|---|---|---|---|---|---|
| 2026-05-03 20:15 | 22.98695 | -82.41245 | 560 ft | 163 kts | 234° |
| 2026-05-03 20:15 | 22.98028 | -82.42267 | 1243 ft | 173 kts | 236° |
| 2026-05-03 20:15 | 22.97258 | -82.43429 | 1644 ft | 201 kts | 235° |
| 2026-05-03 20:15 | 22.96419 | -82.44705 | 2167 ft | 214 kts | 235° |
| 2026-05-03 20:16 | 22.95509 | -82.46077 | 2569 ft | 234 kts | 233° |
| 2026-05-03 20:16 | 22.94541 | -82.47533 | 3238 ft | 244 kts | 233° |
| 2026-05-03 20:16 | 22.93543 | -82.49032 | 4162 ft | 245 kts | 234° |
| 2026-05-03 20:16 | 22.92533 | -82.50547 | 5002 ft | 251 kts | 234° |
| 2026-05-03 20:17 | 22.91514 | -82.52077 | 5990 ft | 249 kts | 234° |
| 2026-05-03 20:17 | 22.90483 | -82.53623 | 6749 ft | 255 kts | 234° |
| 2026-05-03 20:17 | 22.89432 | -82.55196 | 7539 ft | 260 kts | 234° |
| 2026-05-03 20:17 | 22.88368 | -82.56790 | 8363 ft | 263 kts | 234° |
| 2026-05-03 20:18 | 22.87315 | -82.58427 | 9115 ft | 270 kts | 241° |
| 2026-05-03 20:18 | 22.86859 | -82.60433 | 9734 ft | 282 kts | 269° |
| 2026-05-03 20:18 | 22.87234 | -82.62547 | 10393 ft | 295 kts | 291° |
| 2026-05-03 20:18 | 22.88422 | -82.64437 | 10586 ft | 324 kts | 314° |
| 2026-05-03 20:19 | 22.90224 | -82.66041 | 10877 ft | 344 kts | 322° |
| 2026-05-03 20:19 | 22.92232 | -82.67515 | 11470 ft | 351 kts | 325° |
| 2026-05-03 20:19 | 22.94300 | -82.68958 | 12203 ft | 353 kts | 325° |
| 2026-05-03 20:19 | 22.96367 | -82.70398 | 13030 ft | 353 kts | 325° |
| 2026-05-03 20:20 | 22.98438 | -82.71861 | 13697 ft | 358 kts | 324° |
| 2026-05-03 20:20 | 23.00530 | -82.73358 | 14281 ft | 362 kts | 324° |
| 2026-05-03 20:20 | 23.02632 | -82.74881 | 14914 ft | 365 kts | 324° |
| 2026-05-03 20:20 | 23.04718 | -82.76403 | 15584 ft | 367 kts | 323° |
| 2026-05-03 20:21 | 23.06846 | -82.77962 | 16232 ft | 370 kts | 323° |
| 2026-05-03 20:21 | 23.08984 | -82.79533 | 16857 ft | 373 kts | 323° |
| 2026-05-03 20:21 | 23.11141 | -82.81120 | 17456 ft | 375 kts | 323° |
| 2026-05-03 20:21 | 23.13316 | -82.82722 | 18029 ft | 379 kts | 323° |
| 2026-05-03 20:22 | 23.15504 | -82.84335 | 18558 ft | 382 kts | 323° |
| 2026-05-03 20:22 | 23.17711 | -82.85962 | 19046 ft | 385 kts | 323° |
| 2026-05-03 20:22 | 23.19935 | -82.87603 | 19542 ft | 388 kts | 322° |
| 2026-05-03 20:22 | 23.22177 | -82.89257 | 20033 ft | 390 kts | 322° |
| 2026-05-03 20:23 | 23.24414 | -82.90908 | 20514 ft | 393 kts | 322° |
| 2026-05-03 20:23 | 23.26684 | -82.92584 | 20990 ft | 396 kts | 322° |
| 2026-05-03 20:23 | 23.28990 | -82.94238 | 21551 ft | 398 kts | 327° |
| 2026-05-03 20:23 | 23.31635 | -82.95169 | 22286 ft | 406 kts | 348° |
| 2026-05-03 20:24 | 23.34489 | -82.95143 | 22835 ft | 416 kts | 3° |
| 2026-05-03 20:24 | 23.37330 | -82.94345 | 23210 ft | 430 kts | 20° |
| 2026-05-03 20:24 | 23.39985 | -82.92768 | 23649 ft | 437 kts | 28° |
| 2026-05-03 20:24 | 23.42567 | -82.91019 | 24139 ft | 437 kts | 29° |
| 2026-05-03 20:25 | 23.45125 | -82.89235 | 24655 ft | 436 kts | 29° |
| 2026-05-03 20:25 | 23.47682 | -82.87449 | 25000 ft | 438 kts | 29° |
| 2026-05-03 20:25 | 23.50251 | -82.85672 | 25012 ft | 448 kts | 28° |
| 2026-05-03 20:25 | 23.52919 | -82.83847 | 25029 ft | 457 kts | 28° |
| 2026-05-03 20:26 | 23.55642 | -82.81997 | 25037 ft | 465 kts | 28° |
| 2026-05-03 20:26 | 23.58414 | -82.80121 | 25044 ft | 473 kts | 28° |
| 2026-05-03 20:26 | 23.61233 | -82.78216 | 25031 ft | 481 kts | 28° |
| 2026-05-03 20:26 | 23.64096 | -82.76281 | 25032 ft | 487 kts | 28° |
| 2026-05-03 20:27 | 23.66993 | -82.74322 | 25027 ft | 492 kts | 28° |
| 2026-05-03 20:27 | 23.69898 | -82.72354 | 25014 ft | 490 kts | 28° |
| 2026-05-03 20:27 | 23.72790 | -82.70391 | 25008 ft | 488 kts | 28° |
| 2026-05-03 20:27 | 23.75671 | -82.68436 | 25008 ft | 487 kts | 28° |
| 2026-05-03 20:28 | 23.78550 | -82.66482 | 25012 ft | 486 kts | 28° |
| 2026-05-03 20:28 | 23.81423 | -82.64532 | 25015 ft | 486 kts | 28° |
| 2026-05-03 20:28 | 23.84263 | -82.62604 | 25018 ft | 486 kts | 28° |
| 2026-05-03 20:28 | 23.87143 | -82.60648 | 25017 ft | 487 kts | 28° |
| 2026-05-03 20:29 | 23.90021 | -82.58692 | 25030 ft | 489 kts | 28° |
| 2026-05-03 20:29 | 23.92930 | -82.56715 | 25028 ft | 495 kts | 28° |
| 2026-05-03 20:29 | 23.95874 | -82.54713 | 25026 ft | 500 kts | 28° |
| 2026-05-03 20:29 | 23.98838 | -82.52693 | 25027 ft | 505 kts | 28° |
| 2026-05-03 20:30 | 24.01656 | -82.50369 | 25008 ft | 514 kts | 41° |
| 2026-05-03 20:30 | 24.04144 | -82.47524 | 25026 ft | 519 kts | 45° |
| 2026-05-03 20:30 | 24.06551 | -82.44568 | 25019 ft | 522 kts | 46° |
| 2026-05-03 20:30 | 24.08976 | -82.41599 | 25016 ft | 524 kts | 45° |
| 2026-05-03 20:31 | 24.11453 | -82.38648 | 25011 ft | 526 kts | 45° |
| 2026-05-03 20:31 | 24.13968 | -82.35723 | 25010 ft | 526 kts | 44° |
| 2026-05-03 20:31 | 24.16485 | -82.32821 | 25005 ft | 525 kts | 44° |
| 2026-05-03 20:31 | 24.18965 | -82.29967 | 25005 ft | 525 kts | 44° |
| 2026-05-03 20:32 | 24.21465 | -82.27054 | 25011 ft | 526 kts | 46° |
| 2026-05-03 20:32 | 24.23621 | -82.23813 | 25006 ft | 529 kts | 59° |
| 2026-05-03 20:32 | 24.25170 | -82.20152 | 25022 ft | 530 kts | 69° |
| 2026-05-03 20:32 | 24.26496 | -82.16376 | 25017 ft | 531 kts | 68° |
| 2026-05-03 20:33 | 24.27854 | -82.12609 | 25012 ft | 532 kts | 68° |
| 2026-05-03 20:33 | 24.29245 | -82.08861 | 25010 ft | 532 kts | 67° |
| 2026-05-03 20:33 | 24.30668 | -82.05112 | 25013 ft | 533 kts | 67° |
| 2026-05-03 20:33 | 24.32106 | -82.01371 | 25016 ft | 533 kts | 66° |
| 2026-05-03 20:34 | 24.33552 | -81.97627 | 25015 ft | 533 kts | 66° |
| 2026-05-03 20:34 | 24.34999 | -81.93873 | 25023 ft | 534 kts | 66° |
| 2026-05-03 20:34 | 24.36440 | -81.90124 | 25022 ft | 534 kts | 66° |
| 2026-05-03 20:34 | 24.37878 | -81.86372 | 25023 ft | 534 kts | 67° |
| 2026-05-03 20:35 | 24.39318 | -81.82606 | 25027 ft | 534 kts | 67° |
| 2026-05-03 20:35 | 24.40755 | -81.78840 | 25060 ft | 535 kts | 67° |
| 2026-05-03 20:35 | 24.42197 | -81.75062 | 25012 ft | 537 kts | 67° |
| 2026-05-03 20:35 | 24.43619 | -81.71332 | 25024 ft | 536 kts | 67° |
| 2026-05-03 20:36 | 24.45068 | -81.67567 | 25032 ft | 535 kts | 65° |
| 2026-05-03 20:36 | 24.46966 | -81.64079 | 25010 ft | 531 kts | 49° |
| 2026-05-03 20:36 | 24.49359 | -81.61003 | 25033 ft | 528 kts | 47° |
| 2026-05-03 20:36 | 24.51769 | -81.57961 | 25038 ft | 528 kts | 47° |
| 2026-05-03 20:37 | 24.54162 | -81.54901 | 25049 ft | 529 kts | 47° |
| 2026-05-03 20:37 | 24.56540 | -81.51803 | 25017 ft | 529 kts | 48° |
| 2026-05-03 20:37 | 24.58886 | -81.48699 | 25020 ft | 527 kts | 49° |
| 2026-05-03 20:37 | 24.61216 | -81.45591 | 25022 ft | 526 kts | 49° |
| 2026-05-03 20:38 | 24.62751 | -81.43540 | 25022 ft | 525 kts | 49° |
| 2026-05-03 20:38 | 24.65072 | -81.40439 | 25024 ft | 524 kts | 49° |
| 2026-05-03 20:38 | 24.68153 | -81.36334 | 25015 ft | 525 kts | 48° |
| 2026-05-03 20:38 | 24.70474 | -81.33243 | 25024 ft | 525 kts | 48° |
| 2026-05-03 20:39 | 24.72774 | -81.30173 | 25005 ft | 509 kts | 49° |
| 2026-05-03 20:39 | 24.74978 | -81.27226 | 25002 ft | 489 kts | 48° |
| 2026-05-03 20:39 | 24.77098 | -81.24391 | 24892 ft | 474 kts | 48° |
| 2026-05-03 20:39 | 24.79178 | -81.21612 | 24571 ft | 466 kts | 48° |
| 2026-05-03 20:40 | 24.80531 | -81.19806 | 24429 ft | 458 kts | 48° |
| 2026-05-03 20:40 | 24.82543 | -81.17117 | 24065 ft | 452 kts | 48° |
| 2026-05-03 20:40 | 24.84543 | -81.14443 | 23521 ft | 452 kts | 48° |
| 2026-05-03 20:40 | 24.86693 | -81.11981 | 23153 ft | 440 kts | 34° |
| 2026-05-03 20:41 | 24.89310 | -81.10308 | 22413 ft | 434 kts | 18° |
| 2026-05-03 20:41 | 24.92085 | -81.09032 | 21855 ft | 434 kts | 19° |
| 2026-05-03 20:41 | 24.94862 | -81.07717 | 21301 ft | 435 kts | 19° |
| 2026-05-03 20:41 | 24.97649 | -81.06382 | 20715 ft | 437 kts | 20° |
| 2026-05-03 20:42 | 25.00423 | -81.05007 | 20146 ft | 437 kts | 21° |
| 2026-05-03 20:42 | 25.03179 | -81.03639 | 19589 ft | 434 kts | 21° |
| 2026-05-03 20:42 | 25.05895 | -81.02294 | 19051 ft | 431 kts | 20° |
| 2026-05-03 20:42 | 25.08606 | -81.00953 | 18481 ft | 422 kts | 20° |
| 2026-05-03 20:43 | 25.11195 | -80.99671 | 17883 ft | 414 kts | 20° |
| 2026-05-03 20:43 | 25.13790 | -80.98386 | 17321 ft | 404 kts | 20° |
| 2026-05-03 20:43 | 25.16321 | -80.97133 | 16807 ft | 395 kts | 20° |
| 2026-05-03 20:43 | 25.18805 | -80.95903 | 16288 ft | 387 kts | 20° |
| 2026-05-03 20:44 | 25.21236 | -80.94699 | 15802 ft | 378 kts | 20° |
| 2026-05-03 20:44 | 25.23614 | -80.93522 | 15331 ft | 372 kts | 20° |
| 2026-05-03 20:44 | 25.25960 | -80.92361 | 14872 ft | 367 kts | 20° |
| 2026-05-03 20:44 | 25.28281 | -80.91212 | 14407 ft | 363 kts | 20° |
| 2026-05-03 20:45 | 25.30582 | -80.90072 | 13936 ft | 361 kts | 21° |
| 2026-05-03 20:45 | 25.32870 | -80.88938 | 13413 ft | 359 kts | 21° |
| 2026-05-03 20:45 | 25.35114 | -80.87825 | 12942 ft | 356 kts | 21° |
| 2026-05-03 20:45 | 25.37360 | -80.86708 | 12491 ft | 352 kts | 21° |
| 2026-05-03 20:46 | 25.39575 | -80.85618 | 12029 ft | 344 kts | 20° |
| 2026-05-03 20:46 | 25.41763 | -80.84602 | 11595 ft | 340 kts | 19° |
| 2026-05-03 20:46 | 25.43957 | -80.83599 | 11179 ft | 340 kts | 19° |
| 2026-05-03 20:46 | 25.46136 | -80.82659 | 11011 ft | 330 kts | 16° |
| 2026-05-03 20:47 | 25.48270 | -80.81846 | 10987 ft | 316 kts | 15° |
| 2026-05-03 20:47 | 25.50312 | -80.81093 | 10975 ft | 303 kts | 14° |
| 2026-05-03 20:47 | 25.52271 | -80.80371 | 10966 ft | 290 kts | 14° |
| 2026-05-03 20:47 | 25.54145 | -80.79675 | 10969 ft | 278 kts | 14° |
| 2026-05-03 20:48 | 25.55951 | -80.79001 | 10976 ft | 271 kts | 14° |
| 2026-05-03 20:48 | 25.57730 | -80.78335 | 10983 ft | 271 kts | 14° |
| 2026-05-03 20:48 | 25.59521 | -80.77662 | 10997 ft | 273 kts | 14° |
| 2026-05-03 20:48 | 25.61327 | -80.76981 | 10978 ft | 277 kts | 14° |
| 2026-05-03 20:49 | 25.63171 | -80.76286 | 10737 ft | 283 kts | 14° |
| 2026-05-03 20:49 | 25.64897 | -80.75291 | 10485 ft | 286 kts | 40° |
| 2026-05-03 20:49 | 25.66156 | -80.73637 | 10363 ft | 275 kts | 51° |
| 2026-05-03 20:49 | 25.67286 | -80.71961 | 10116 ft | 269 kts | 51° |
| 2026-05-03 20:50 | 25.68396 | -80.70310 | 9789 ft | 265 kts | 51° |
| 2026-05-03 20:50 | 25.69495 | -80.68683 | 9297 ft | 263 kts | 51° |
| 2026-05-03 20:50 | 25.70597 | -80.67059 | 8751 ft | 262 kts | 51° |
| 2026-05-03 20:50 | 25.71696 | -80.65445 | 8220 ft | 261 kts | 51° |
| 2026-05-03 20:51 | 25.72788 | -80.63846 | 7696 ft | 260 kts | 52° |
| 2026-05-03 20:51 | 25.73874 | -80.62256 | 7202 ft | 257 kts | 52° |
| 2026-05-03 20:51 | 25.74949 | -80.60682 | 6716 ft | 255 kts | 52° |
| 2026-05-03 20:51 | 25.76019 | -80.59115 | 6204 ft | 254 kts | 52° |
| 2026-05-03 20:52 | 25.77066 | -80.57557 | 5736 ft | 250 kts | 57° |
| 2026-05-03 20:52 | 25.77634 | -80.55793 | 5183 ft | 241 kts | 84° |
| 2026-05-03 20:52 | 25.77745 | -80.53946 | 4535 ft | 240 kts | 90° |
| 2026-05-03 20:52 | 25.77777 | -80.52083 | 4297 ft | 243 kts | 89° |
| 2026-05-03 20:53 | 25.77834 | -80.50232 | 3892 ft | 242 kts | 88° |
| 2026-05-03 20:53 | 25.77920 | -80.48392 | 3484 ft | 235 kts | 88° |
| 2026-05-03 20:53 | 25.77999 | -80.46595 | 3065 ft | 229 kts | 88° |
| 2026-05-03 20:53 | 25.78069 | -80.44845 | 2655 ft | 225 kts | 88° |
| 2026-05-03 20:54 | 25.78135 | -80.43171 | 2537 ft | 212 kts | 88° |
| 2026-05-03 20:54 | 25.78228 | -80.40001 | 1719 ft | 197 kts | 88° |
| 2026-05-03 20:54 | 25.78284 | -80.38557 | 1417 ft | 179 kts | 85° |
| 2026-05-03 20:55 | 25.78388 | -80.37239 | 1142 ft | 164 kts | 85° |
| 2026-05-03 20:55 | 25.78446 | -80.36011 | 909 ft | 155 kts | 88° |
| 2026-05-03 20:55 | 25.78435 | -80.34825 | 667 ft | 153 kts | 87° |
| 2026-05-03 20:55 | 25.78506 | -80.33673 | 485 ft | 148 kts | 82° |
| 2026-05-03 20:56 | 25.78574 | -80.32539 | 300 ft | 147 kts | 85° |
| 2026-05-03 20:56 | 25.78613 | -80.31405 | 105 ft | 147 kts | 84° |
| 2026-05-03 20:56 | 25.78662 | -80.30292 | 15 ft | 134 kts | 87° |
| 2026-05-03 20:56 | 25.78696 | -80.29391 | 13 ft | 95 kts | 88° |
| 2026-05-03 20:57 | 25.78720 | -80.28891 | 14 ft | 43 kts | 83° |
| 2026-05-03 20:57 | 25.78792 | -80.28717 | 15 ft | 18 kts | 46° |
| 2026-05-03 20:57 | 25.78862 | -80.28640 | 14 ft | 13 kts | 40° |
| 2026-05-03 20:57 | 25.78920 | -80.28592 | 14 ft | 6 kts | 37° |
| 2026-05-03 20:58 | 25.78952 | -80.28563 | 14 ft | 6 kts | 44° |
| 2026-05-03 20:58 | 25.78962 | -80.28494 | 14 ft | 15 kts | 86° |
| 2026-05-03 20:58 | 25.78966 | -80.28375 | 15 ft | 15 kts | 85° |
| 2026-05-03 20:58 | 25.78993 | -80.28267 | 15 ft | 15 kts | 61° |
| 2026-05-03 20:59 | 25.79017 | -80.28168 | 16 ft | 12 kts | 40° |
| 2026-05-03 20:59 | 25.79076 | -80.28202 | 15 ft | 11 kts | 298° |
| 2026-05-03 20:59 | 25.79109 | -80.28208 | 14 ft | 5 kts | 25° |
| 2026-05-03 20:59 | 25.79144 | -80.28186 | 14 ft | 6 kts | 30° |
| 2026-05-03 21:00 | 25.79151 | -80.28182 | 14 ft | 0 kts | 30° |